Time;durP1;ratioP1;P1;durP2;ratioP2;P2;SDS_P1;SDS_P2;PMS_P1;PMS_P2;Temp;Humidity;BMP_temperature;BMP_pressure;BME280_temperature;BME280_humidity;BME280_pressure;Samples;Min_cycle;Max_cycle;Signal;HPM_P1;HPM_P2
2023/07/08 00:01:14;;;;;;;0.75;0.75;;;;;;;23.09;45.23;100868.06;4529819;28;20056;-60
2023/07/08 00:03:24;;;;;;;0.85;0.80;;;;;;;23.08;45.08;100859.81;4530505;28;20040;-60
2023/07/08 00:05:36;;;;;;;0.70;0.60;;;;;;;23.09;45.24;100872.97;4528265;28;20088;-59
2023/07/08 00:07:47;;;;;;;0.90;0.80;;;;;;;23.02;44.63;100861.31;4530389;28;20021;-60
2023/07/08 00:09:57;;;;;;;0.60;0.60;;;;;;;23.07;44.72;100863.91;4518870;28;20040;-59
2023/07/08 00:12:10;;;;;;;2.67;0.80;;;;;;;23.06;44.87;100859.34;4529592;28;20067;-60
2023/07/08 00:14:21;;;;;;;0.70;0.70;;;;;;;23.05;44.86;100849.06;4528464;28;20212;-59
2023/07/08 00:16:31;;;;;;;0.80;0.80;;;;;;;23.04;44.58;100853.97;4530977;28;20136;-59
2023/07/08 00:18:42;;;;;;;0.90;0.88;;;;;;;23.04;45.24;100848.22;4530065;28;20042;-59
2023/07/08 00:20:52;;;;;;;0.80;0.80;;;;;;;23.03;45.37;100846.56;4528745;28;20069;-60
2023/07/08 00:23:03;;;;;;;0.80;0.80;;;;;;;23.05;45.27;100849.06;4529448;28;20064;-60
2023/07/08 00:25:15;;;;;;;0.82;0.70;;;;;;;23.05;44.86;100851.94;4528321;28;20105;-59
2023/07/08 00:27:25;;;;;;;0.82;0.80;;;;;;;23.02;45.14;100841.19;4528504;28;21408;-59
2023/07/08 00:29:35;;;;;;;0.70;0.70;;;;;;;23.02;45.23;100844.06;4530633;28;20175;-60
2023/07/08 00:31:46;;;;;;;0.65;0.65;;;;;;;23.01;45.26;100836.59;4510805;28;20049;-60
2023/07/08 00:33:56;;;;;;;0.88;0.82;;;;;;;23.04;45.43;100841.63;4529756;28;20045;-59
2023/07/08 00:36:15;;;;;;;1.20;0.82;;;;;;;23.00;45.22;100834.97;4518370;28;20572;-60
2023/07/08 00:38:27;;;;;;;0.70;0.70;;;;;;;23.02;45.07;100838.28;4526985;28;20580;-61
2023/07/08 00:40:48;;;;;;;0.70;0.70;;;;;;;22.97;44.94;100835.72;4529015;28;20164;-59
2023/07/08 00:43:02;;;;;;;0.70;0.70;;;;;;;22.96;45.38;100842.69;4511029;28;20589;-60
2023/07/08 00:45:32;;;;;;;0.95;0.90;;;;;;;23.01;45.56;100848.13;4514309;28;20038;-60
2023/07/08 00:47:43;;;;;;;0.90;0.70;;;;;;;23.01;45.54;100848.13;4528837;28;20024;-60
2023/07/08 00:50:03;;;;;;;1.00;0.70;;;;;;;23.00;45.56;100837.84;4527421;28;20076;-60
2023/07/08 00:52:22;;;;;;;0.77;0.77;;;;;;;23.01;45.67;100839.50;4529365;28;20030;-60
2023/07/08 00:54:32;;;;;;;0.95;0.73;;;;;;;23.01;45.17;100830.84;4509984;28;21008;-60
2023/07/08 00:56:55;;;;;;;0.88;0.80;;;;;;;23.00;45.40;100837.84;4525469;28;20166;-60
2023/07/08 00:59:11;;;;;;;1.05;0.80;;;;;;;22.96;45.51;100828.31;4530356;28;20032;-60
2023/07/08 01:01:22;;;;;;;0.75;0.75;;;;;;;22.98;45.11;100837.38;4519338;28;20588;-60
2023/07/08 01:03:40;;;;;;;1.20;0.80;;;;;;;22.99;45.11;100833.28;4529937;28;20389;-60
2023/07/08 01:05:52;;;;;;;0.80;0.70;;;;;;;23.00;45.11;100838.69;4529352;28;20033;-60
2023/07/08 01:08:05;;;;;;;0.73;0.70;;;;;;;22.98;45.29;100838.22;4528473;28;20048;-60
2023/07/08 01:10:26;;;;;;;0.88;0.80;;;;;;;22.95;45.19;100820.84;4527088;28;20644;-60
2023/07/08 01:12:42;;;;;;;1.15;0.70;;;;;;;22.94;45.10;100813.44;4518072;28;20335;-60
2023/07/08 01:14:54;;;;;;;1.00;0.90;;;;;;;22.98;45.07;100815.19;4529284;28;20761;-60
2023/07/08 01:17:05;;;;;;;0.77;0.77;;;;;;;22.98;44.66;100817.22;4530176;28;20619;-60
2023/07/08 01:19:18;;;;;;;0.70;0.70;;;;;;;22.96;44.93;100811.03;4528610;28;20034;-60
2023/07/08 01:21:38;;;;;;;0.80;0.80;;;;;;;22.99;44.68;100813.16;4517860;28;20045;-60
2023/07/08 01:23:48;;;;;;;0.90;0.90;;;;;;;22.96;44.34;100808.16;4527093;28;20124;-61
2023/07/08 01:25:59;;;;;;;0.73;0.70;;;;;;;22.96;44.64;100805.28;4520671;28;20037;-60
2023/07/08 01:28:10;;;;;;;1.15;0.65;;;;;;;22.97;44.93;100806.94;4519767;28;20053;-60
2023/07/08 01:30:21;;;;;;;1.00;0.80;;;;;;;22.95;45.02;100804.44;4528386;28;20045;-59
2023/07/08 01:32:36;;;;;;;0.85;0.80;;;;;;;22.96;44.72;100806.09;4514468;28;20057;-60
2023/07/08 01:34:59;;;;;;;0.80;0.80;;;;;;;22.96;44.97;100805.28;4528300;28;20042;-60
2023/07/08 01:37:11;;;;;;;0.95;0.80;;;;;;;22.94;44.97;100801.94;4518071;28;20125;-60
2023/07/08 01:39:24;;;;;;;0.80;0.75;;;;;;;22.96;44.84;100802.41;4512432;28;20079;-60
2023/07/08 01:41:34;;;;;;;1.48;0.80;;;;;;;22.93;44.66;100806.84;4518258;28;20588;-60
2023/07/08 01:43:45;;;;;;;0.98;0.85;;;;;;;22.96;44.82;100805.28;4521493;28;20053;-60
2023/07/08 01:46:00;;;;;;;0.65;0.65;;;;;;;22.94;45.15;100801.94;4518230;28;20533;-60
2023/07/08 01:48:14;;;;;;;0.80;0.70;;;;;;;22.94;45.04;100804.81;4527329;28;20220;-60
2023/07/08 01:50:26;;;;;;;1.58;0.88;;;;;;;22.93;45.29;100791.63;4527282;28;20037;-60
2023/07/08 01:52:37;;;;;;;0.80;0.80;;;;;;;22.93;45.04;100795.31;4528895;28;20537;-60
2023/07/08 01:54:55;;;;;;;0.80;0.80;;;;;;;22.93;45.21;100792.44;4531514;28;20038;-60
2023/07/08 01:57:05;;;;;;;1.02;0.82;;;;;;;22.93;44.75;100797.41;4528522;28;20052;-60
2023/07/08 01:59:16;;;;;;;1.35;0.93;;;;;;;22.85;44.61;100776.25;4527585;28;20036;-60
2023/07/08 02:01:26;;;;;;;0.80;0.80;;;;;;;22.89;44.85;100784.97;4510840;28;20081;-60
2023/07/08 02:03:37;;;;;;;1.05;0.85;;;;;;;22.86;44.82;100777.94;4527779;28;20060;-60
2023/07/08 02:05:47;;;;;;;1.13;1.00;;;;;;;22.93;44.74;100783.00;4526660;28;20410;-60
2023/07/08 02:07:58;;;;;;;0.90;0.90;;;;;;;22.93;44.79;100777.25;4529210;28;20090;-60
2023/07/08 02:10:09;;;;;;;0.88;0.80;;;;;;;22.92;44.91;100775.56;4527358;28;20029;-60
2023/07/08 02:12:20;;;;;;;0.60;0.60;;;;;;;22.90;45.05;100767.31;4519682;28;20755;-60
2023/07/08 02:14:30;;;;;;;0.95;0.70;;;;;;;22.90;44.84;100773.06;4527411;28;20042;-61
2023/07/08 02:16:41;;;;;;;0.85;0.85;;;;;;;22.90;44.95;100772.22;4529366;28;20441;-60
2023/07/08 02:18:51;;;;;;;0.77;0.77;;;;;;;22.91;44.58;100777.59;4527912;28;20556;-60
2023/07/08 02:21:02;;;;;;;0.80;0.80;;;;;;;22.90;44.76;100769.34;4518450;28;20057;-60
2023/07/08 02:23:14;;;;;;;0.80;0.80;;;;;;;22.91;45.06;100771.84;4529292;28;20041;-59
2023/07/08 02:25:24;;;;;;;0.80;0.80;;;;;;;22.90;44.88;100773.06;4526382;28;20040;-60
2023/07/08 02:27:37;;;;;;;0.90;0.90;;;;;;;22.90;44.47;100764.44;4512179;28;20438;-60
2023/07/08 02:29:47;;;;;;;0.90;0.80;;;;;;;22.90;44.29;100772.22;4527891;28;20884;-60
2023/07/08 02:31:58;;;;;;;1.00;0.90;;;;;;;22.88;44.70;100774.66;4527561;28;20137;-60
2023/07/08 02:34:08;;;;;;;0.80;0.80;;;;;;;22.88;44.80;100771.78;4528162;28;20107;-60
2023/07/08 02:36:19;;;;;;;1.00;0.90;;;;;;;22.82;44.32;100753.13;4528094;28;20037;-60
2023/07/08 02:38:30;;;;;;;1.17;0.90;;;;;;;22.85;44.45;100758.16;4528384;28;20033;-60
2023/07/08 02:40:42;;;;;;;0.90;0.80;;;;;;;22.82;44.15;100761.75;4528735;28;20041;-60
2023/07/08 02:42:53;;;;;;;0.80;0.80;;;;;;;22.86;44.67;100765.56;4524871;28;20111;-60
2023/07/08 02:45:03;;;;;;;0.80;0.80;;;;;;;22.86;44.83;100759.81;4516326;28;20040;-60
2023/07/08 02:47:14;;;;;;;0.82;0.75;;;;;;;22.85;44.63;100758.97;4512698;28;20034;-60
2023/07/08 02:49:24;;;;;;;0.90;0.80;;;;;;;22.83;44.81;100760.56;4527768;28;20026;-60
2023/07/08 02:51:35;;;;;;;1.13;0.70;;;;;;;22.84;44.65;100762.22;4526893;28;20064;-61
2023/07/08 02:53:47;;;;;;;1.00;0.90;;;;;;;22.81;44.62;100760.09;4513547;28;20580;-60
2023/07/08 02:55:58;;;;;;;0.80;0.80;;;;;;;22.85;44.82;100763.91;4511961;28;20055;-60
2023/07/08 02:58:09;;;;;;;2.17;1.00;;;;;;;22.80;44.45;100752.69;4513145;28;20467;-60
2023/07/08 03:00:20;;;;;;;0.73;0.73;;;;;;;22.84;44.99;100762.22;4526261;28;20956;-60
2023/07/08 03:02:30;;;;;;;1.02;0.93;;;;;;;22.83;44.88;100758.53;4527515;28;20060;-60
2023/07/08 03:04:41;;;;;;;0.60;0.60;;;;;;;22.82;44.79;100761.75;4526384;28;20033;-60
2023/07/08 03:06:51;;;;;;;1.05;0.90;;;;;;;22.85;44.95;100758.16;4526843;28;20033;-60
2023/07/08 03:09:02;;;;;;;1.00;0.90;;;;;;;22.84;45.27;100767.97;4511686;28;20397;-60
2023/07/08 03:11:12;;;;;;;0.85;0.80;;;;;;;22.83;45.04;100760.56;4527650;28;20076;-60
2023/07/08 03:13:23;;;;;;;0.70;0.70;;;;;;;22.83;45.17;100760.56;4526503;28;20120;-60
2023/07/08 03:15:34;;;;;;;0.80;0.70;;;;;;;22.81;44.62;100749.44;4528322;28;20116;-60
2023/07/08 03:17:46;;;;;;;1.63;0.80;;;;;;;22.82;44.52;100753.97;4516196;28;20136;-60
2023/07/08 03:19:57;;;;;;;0.90;0.70;;;;;;;22.82;44.58;100753.97;4515797;28;20044;-60
2023/07/08 03:22:07;;;;;;;0.80;0.77;;;;;;;22.78;44.82;100752.25;4526272;28;20039;-60
2023/07/08 03:24:18;;;;;;;0.80;0.80;;;;;;;22.81;44.69;100758.06;4515657;28;20034;-60
2023/07/08 03:26:29;;;;;;;1.48;1.00;;;;;;;22.80;44.56;100756.38;4516106;28;20028;-61
2023/07/08 03:28:40;;;;;;;1.30;1.00;;;;;;;22.80;44.45;100756.38;4526757;28;20068;-62
2023/07/08 03:30:52;;;;;;;0.75;0.75;;;;;;;22.70;44.79;100741.78;4512027;28;20896;-61
2023/07/08 03:33:02;;;;;;;0.85;0.80;;;;;;;22.71;44.59;100752.06;4525474;28;20036;-61
2023/07/08 03:35:13;;;;;;;0.88;0.88;;;;;;;22.69;44.69;100755.31;4526097;28;20060;-62
2023/07/08 03:37:24;;;;;;;1.02;0.93;;;;;;;22.64;44.88;100764.28;4527562;28;20048;-61
2023/07/08 03:39:35;;;;;;;0.80;0.80;;;;;;;22.65;44.89;100770.84;4526121;28;20367;-61
2023/07/08 03:41:46;;;;;;;0.85;0.85;;;;;;;22.60;45.06;100765.38;4516810;28;20126;-61
2023/07/08 03:43:56;;;;;;;0.90;0.80;;;;;;;22.57;45.33;100769.88;4516604;28;20041;-61
2023/07/08 03:46:10;;;;;;;0.80;0.80;;;;;;;22.52;45.25;100769.31;4526528;28;20488;-62
2023/07/08 03:48:21;;;;;;;1.15;0.80;;;;;;;22.52;45.23;100777.94;4509885;28;20021;-61
2023/07/08 03:50:31;;;;;;;1.10;0.80;;;;;;;22.50;45.19;100772.53;4519428;28;20033;-61
2023/07/08 03:52:42;;;;;;;0.95;0.80;;;;;;;22.51;44.93;100782.00;4493977;28;20118;-61
2023/07/08 03:54:52;;;;;;;1.02;0.90;;;;;;;22.45;45.64;100778.59;4518288;28;20504;-61
2023/07/08 03:57:03;;;;;;;1.33;1.10;;;;;;;22.46;45.17;100774.50;4525993;28;20033;-61
2023/07/08 03:59:16;;;;;;;1.25;0.80;;;;;;;22.43;45.54;100781.03;4508868;28;20033;-61
2023/07/08 04:01:27;;;;;;;0.80;0.80;;;;;;;22.43;45.27;100772.38;4508486;28;20042;-61
2023/07/08 04:03:38;;;;;;;0.77;0.77;;;;;;;22.40;45.11;100769.41;4527443;28;20037;-61
2023/07/08 04:05:49;;;;;;;1.20;0.90;;;;;;;22.40;45.15;100773.16;4508413;28;20511;-62
2023/07/08 04:07:59;;;;;;;0.95;0.80;;;;;;;22.38;45.38;100766.94;4518262;28;20041;-62
2023/07/08 04:10:11;;;;;;;1.38;0.80;;;;;;;22.40;45.83;100775.19;4525579;28;20048;-62
2023/07/08 04:12:21;;;;;;;1.00;0.80;;;;;;;22.39;45.26;100767.78;4527324;28;20044;-61
2023/07/08 04:14:32;;;;;;;1.10;1.00;;;;;;;22.38;45.37;100784.19;4528066;28;20036;-61
2023/07/08 04:16:51;;;;;;;0.80;0.80;;;;;;;22.38;45.30;100778.44;4527018;28;20636;-61
2023/07/08 04:19:01;;;;;;;0.80;0.80;;;;;;;22.35;45.26;100784.09;4530918;28;20034;-61
2023/07/08 04:21:12;;;;;;;1.00;0.90;;;;;;;22.37;45.60;100787.44;4517738;28;20132;-61
2023/07/08 04:23:23;;;;;;;0.82;0.82;;;;;;;22.34;45.68;100789.03;4532751;28;20025;-61
2023/07/08 04:25:33;;;;;;;2.10;0.95;;;;;;;22.33;45.45;100786.50;4531116;28;20041;-61
2023/07/08 04:27:43;;;;;;;0.80;0.80;;;;;;;22.29;45.58;100780.69;4530361;28;20044;-61
2023/07/08 04:29:54;;;;;;;1.15;1.05;;;;;;;22.33;45.70;100793.09;4532209;28;20048;-62
2023/07/08 04:32:05;;;;;;;1.10;0.90;;;;;;;22.31;45.89;100784.00;4531078;28;20117;-62
2023/07/08 04:34:16;;;;;;;0.80;0.80;;;;;;;22.32;45.69;100781.97;4533356;28;20694;-61
2023/07/08 04:36:26;;;;;;;0.80;0.80;;;;;;;22.32;45.38;100784.84;4530574;28;20060;-63
2023/07/08 04:38:37;;;;;;;0.70;0.70;;;;;;;22.31;45.69;100786.88;4531312;28;20021;-61
2023/07/08 04:40:50;;;;;;;0.82;0.80;;;;;;;22.29;45.80;100786.44;4532185;28;20130;-63
2023/07/08 04:43:01;;;;;;;0.85;0.70;;;;;;;22.27;45.90;100788.84;4531614;28;20112;-61
2023/07/08 04:45:11;;;;;;;1.40;0.77;;;;;;;22.25;46.04;100787.56;4531074;28;20310;-61
2023/07/08 04:47:22;;;;;;;1.00;0.80;;;;;;;22.25;46.19;100785.50;4530880;28;20079;-61
2023/07/08 04:49:33;;;;;;;0.90;0.80;;;;;;;22.24;46.00;100786.72;4534276;28;20036;-61
2023/07/08 04:51:44;;;;;;;0.80;0.80;;;;;;;22.30;46.27;100802.47;4530689;28;20044;-61
2023/07/08 04:53:54;;;;;;;1.10;0.90;;;;;;;22.30;46.51;100793.00;4531532;28;20137;-61
2023/07/08 04:56:04;;;;;;;0.90;0.75;;;;;;;22.29;47.00;100791.34;4516101;28;20072;-61
2023/07/08 04:58:15;;;;;;;1.88;1.00;;;;;;;22.28;46.68;100793.38;4521627;28;20045;-61
2023/07/08 05:00:25;;;;;;;1.35;0.88;;;;;;;22.29;46.59;100788.47;4531707;28;20129;-61
2023/07/08 05:02:36;;;;;;;0.88;0.88;;;;;;;22.30;46.65;100793.00;4530732;28;20052;-61
2023/07/08 05:04:46;;;;;;;1.00;0.90;;;;;;;22.28;45.67;100795.44;4532238;28;20040;-61
2023/07/08 05:06:56;;;;;;;0.85;0.85;;;;;;;22.29;45.66;100797.94;4531489;28;20382;-61
2023/07/08 05:09:07;;;;;;;1.00;0.90;;;;;;;22.31;45.87;100788.94;4531663;28;20123;-61
2023/07/08 05:11:18;;;;;;;1.23;0.80;;;;;;;22.31;45.88;100794.69;4529762;28;20529;-61
2023/07/08 05:13:28;;;;;;;1.00;0.90;;;;;;;22.25;45.95;100784.69;4530601;28;20067;-61
2023/07/08 05:15:39;;;;;;;1.13;1.00;;;;;;;22.29;45.67;100791.34;4529880;28;20040;-61
2023/07/08 05:17:51;;;;;;;1.55;1.05;;;;;;;22.32;46.13;100791.44;4529347;28;20111;-61
2023/07/08 05:20:03;;;;;;;0.93;0.70;;;;;;;22.31;45.82;100786.06;4528338;28;20031;-61
2023/07/08 05:22:13;;;;;;;0.90;0.80;;;;;;;22.25;45.79;100774.00;4529664;28;20144;-61
2023/07/08 05:24:24;;;;;;;1.55;1.00;;;;;;;22.28;45.85;100783.94;4530445;28;20025;-61
2023/07/08 05:26:34;;;;;;;1.77;0.80;;;;;;;22.31;46.14;100789.75;4516232;28;20488;-61
2023/07/08 05:28:45;;;;;;;1.33;1.05;;;;;;;22.29;45.81;100785.59;4529820;28;20061;-61
2023/07/08 05:30:56;;;;;;;0.82;0.82;;;;;;;22.31;46.40;100786.88;4529933;28;20037;-61
2023/07/08 05:33:07;;;;;;;1.00;0.80;;;;;;;22.34;46.71;100782.44;4527582;28;20103;-61
2023/07/08 05:35:17;;;;;;;1.10;1.00;;;;;;;22.29;46.76;100774.09;4529323;28;20041;-61
2023/07/08 05:37:29;;;;;;;1.67;1.05;;;;;;;22.30;46.79;100775.75;4528066;28;20036;-61
2023/07/08 05:39:39;;;;;;;0.82;0.80;;;;;;;22.32;46.61;100777.06;4528470;28;20041;-61
2023/07/08 05:41:50;;;;;;;0.80;0.80;;;;;;;22.14;46.94;100745.00;4529070;28;20365;-61
2023/07/08 05:44:00;;;;;;;0.88;0.80;;;;;;;22.34;47.23;100779.56;4528300;28;20138;-61
2023/07/08 05:46:11;;;;;;;1.08;0.90;;;;;;;22.33;46.74;100775.00;4528860;28;20096;-62
2023/07/08 05:48:21;;;;;;;1.13;1.00;;;;;;;22.31;47.06;100768.81;4529317;28;20029;-61
2023/07/08 05:50:32;;;;;;;0.82;0.82;;;;;;;22.31;47.23;100774.56;4527019;28;20048;-61
2023/07/08 05:52:42;;;;;;;1.10;1.00;;;;;;;22.33;47.05;100777.88;4527316;28;20079;-61
2023/07/08 05:54:53;;;;;;;0.60;0.60;;;;;;;22.33;47.53;100775.84;4527496;28;20027;-61
2023/07/08 05:57:03;;;;;;;0.90;0.80;;;;;;;22.32;47.70;100777.06;4529407;28;20048;-61
2023/07/08 05:59:14;;;;;;;1.42;0.90;;;;;;;22.32;47.63;100776.22;4528650;28;20037;-61
2023/07/08 06:01:24;;;;;;;1.10;0.90;;;;;;;22.34;47.93;100776.69;4512573;28;20107;-60
2023/07/08 06:03:37;;;;;;;0.82;0.80;;;;;;;22.33;48.23;100775.84;4526904;28;20064;-61
2023/07/08 06:05:49;;;;;;;1.17;0.90;;;;;;;22.32;48.06;100768.44;4527467;28;20619;-61
2023/07/08 06:07:59;;;;;;;1.08;0.98;;;;;;;22.34;47.89;100770.94;4519014;28;20038;-61
2023/07/08 06:10:10;;;;;;;0.80;0.80;;;;;;;22.33;48.57;100763.50;4527081;28;20032;-61
2023/07/08 06:12:21;;;;;;;1.00;0.90;;;;;;;22.33;48.50;100764.34;4514700;28;20033;-61
2023/07/08 06:14:31;;;;;;;0.82;0.80;;;;;;;22.36;48.54;100769.34;4530442;28;20044;-60
2023/07/08 06:16:42;;;;;;;1.10;1.00;;;;;;;22.35;48.39;100761.09;4529507;28;20033;-61
2023/07/08 06:18:52;;;;;;;1.23;1.10;;;;;;;22.38;48.19;100761.19;4527225;28;20484;-60
2023/07/08 06:21:03;;;;;;;0.93;0.90;;;;;;;22.39;48.48;100770.66;4530285;28;20358;-60
2023/07/08 06:23:13;;;;;;;1.10;1.00;;;;;;;22.41;48.29;100769.03;4529967;28;20025;-60
2023/07/08 06:25:24;;;;;;;1.20;1.10;;;;;;;22.36;48.38;100763.59;4513274;28;20045;-60
2023/07/08 06:27:34;;;;;;;1.00;0.90;;;;;;;22.42;48.71;100772.75;4532690;28;20393;-61
2023/07/08 06:29:45;;;;;;;1.45;1.00;;;;;;;22.41;48.87;100769.03;4526986;28;20037;-61
2023/07/08 06:31:55;;;;;;;0.90;0.90;;;;;;;22.41;49.15;100771.06;4528519;28;20067;-60
2023/07/08 06:34:05;;;;;;;1.20;0.77;;;;;;;22.42;48.84;100778.53;4530943;28;20569;-61
2023/07/08 06:36:16;;;;;;;1.02;1.00;;;;;;;22.41;49.32;100771.06;4528875;28;20064;-60
2023/07/08 06:38:26;;;;;;;1.13;1.02;;;;;;;22.42;49.73;100767.00;4530643;28;20040;-60
2023/07/08 06:40:37;;;;;;;1.08;0.98;;;;;;;22.44;49.50;100778.97;4528930;28;20037;-60
2023/07/08 06:42:47;;;;;;;1.15;0.93;;;;;;;22.45;49.50;100772.00;4533393;28;20045;-61
2023/07/08 06:45:09;;;;;;;0.93;0.82;;;;;;;22.44;49.80;100773.22;4520395;28;20013;-61
2023/07/08 06:47:21;;;;;;;0.90;0.80;;;;;;;22.46;50.22;100767.91;4526832;28;20085;-61
2023/07/08 06:49:31;;;;;;;1.10;1.00;;;;;;;22.42;50.25;100759.19;4532048;28;20044;-61
2023/07/08 06:51:42;;;;;;;1.10;1.00;;;;;;;22.46;50.02;100779.41;4529507;28;20033;-60
2023/07/08 06:53:53;;;;;;;1.52;1.05;;;;;;;22.46;50.08;100767.91;4528033;28;20042;-60
2023/07/08 06:56:03;;;;;;;1.17;1.08;;;;;;;22.47;50.54;100766.72;4530940;28;20043;-60
2023/07/08 06:58:14;;;;;;;1.55;0.93;;;;;;;22.48;50.77;100772.09;4531833;28;20029;-61
2023/07/08 07:00:24;;;;;;;0.93;0.90;;;;;;;22.50;50.97;100774.59;4506072;28;20520;-61
2023/07/08 07:02:35;;;;;;;1.08;0.98;;;;;;;22.46;51.04;100770.78;4530078;28;20537;-60
2023/07/08 07:04:45;;;;;;;1.02;0.93;;;;;;;22.47;50.89;100772.47;4527773;28;20072;-60
2023/07/08 07:06:56;;;;;;;0.80;0.80;;;;;;;22.45;50.79;100767.09;4529457;28;20034;-61
2023/07/08 07:09:06;;;;;;;1.25;1.00;;;;;;;22.49;50.80;100767.16;4529595;28;20040;-61
2023/07/08 07:11:19;;;;;;;1.20;1.00;;;;;;;22.51;51.15;100773.38;4528694;28;20901;-61
2023/07/08 07:13:29;;;;;;;1.35;1.00;;;;;;;22.46;51.87;100762.16;4527453;28;20620;-61
2023/07/08 07:15:39;;;;;;;0.93;0.90;;;;;;;22.50;50.84;100780.34;4528141;28;20102;-61
2023/07/08 07:17:50;;;;;;;1.10;1.00;;;;;;;22.46;51.01;100770.78;4525814;28;20120;-61
2023/07/08 07:20:01;;;;;;;1.13;1.02;;;;;;;22.51;50.55;100776.25;4528524;28;20041;-61
2023/07/08 07:22:11;;;;;;;1.27;1.10;;;;;;;22.53;52.10;100786.22;4528079;28;20047;-61
2023/07/08 07:24:21;;;;;;;1.33;1.17;;;;;;;22.48;52.58;100774.97;4527758;28;20044;-61
2023/07/08 07:26:32;;;;;;;1.45;1.05;;;;;;;22.50;52.79;100769.66;4527052;28;20554;-61
2023/07/08 07:28:43;;;;;;;1.05;0.90;;;;;;;22.59;49.04;100772.38;4527223;28;20178;-60
2023/07/08 07:30:58;;;;;;;0.93;0.90;;;;;;;22.68;48.45;100772.97;4528471;28;20025;-61
2023/07/08 07:33:09;;;;;;;1.00;0.90;;;;;;;22.70;47.88;100767.69;4522723;28;20038;-61
2023/07/08 07:35:21;;;;;;;1.00;0.95;;;;;;;22.78;47.87;100767.47;4527417;28;20037;-61
2023/07/08 07:37:32;;;;;;;0.80;0.80;;;;;;;22.82;47.45;100770.41;4526229;28;20592;-61
2023/07/08 07:39:42;;;;;;;1.05;0.70;;;;;;;22.80;47.37;100767.09;4527660;28;20053;-61
2023/07/08 07:41:53;;;;;;;1.27;0.90;;;;;;;22.85;47.41;100763.91;4526189;28;20044;-60
2023/07/08 07:44:03;;;;;;;1.35;0.82;;;;;;;22.88;47.55;100768.91;4527252;28;20044;-61
2023/07/08 07:46:14;;;;;;;0.82;0.73;;;;;;;22.88;47.60;100769.72;4528790;28;20432;-61
2023/07/08 07:48:24;;;;;;;1.10;0.98;;;;;;;22.86;47.24;100765.56;4527174;28;20514;-61
2023/07/08 07:50:35;;;;;;;1.08;0.98;;;;;;;22.89;47.30;100770.56;4527200;28;20033;-61
2023/07/08 07:52:45;;;;;;;0.80;0.80;;;;;;;22.90;47.25;100767.31;4527174;28;20036;-61
2023/07/08 07:54:56;;;;;;;0.88;0.88;;;;;;;22.94;47.31;100773.16;4527524;28;20111;-61
2023/07/08 07:57:06;;;;;;;1.83;0.90;;;;;;;22.92;47.17;100775.56;4529396;28;20033;-61
2023/07/08 07:59:17;;;;;;;1.10;1.00;;;;;;;22.92;47.42;100776.41;4520095;28;20061;-61
2023/07/08 08:01:27;;;;;;;1.08;0.95;;;;;;;22.91;47.44;100768.97;4513860;28;20091;-61
2023/07/08 08:03:38;;;;;;;0.80;0.80;;;;;;;22.93;47.19;100783.00;4529706;28;20203;-61
2023/07/08 08:05:49;;;;;;;1.30;0.95;;;;;;;22.96;47.51;100780.19;4530031;28;20090;-61
2023/07/08 08:07:59;;;;;;;1.02;0.90;;;;;;;22.90;47.53;100769.34;4519934;28;20041;-61
2023/07/08 08:10:10;;;;;;;0.80;0.80;;;;;;;22.97;47.50;100783.91;4528997;28;20033;-61
2023/07/08 08:12:22;;;;;;;2.60;1.15;;;;;;;22.85;47.20;100752.41;4528356;28;20073;-61
2023/07/08 08:14:32;;;;;;;1.00;0.90;;;;;;;22.99;47.38;100775.72;4530404;28;20099;-61
2023/07/08 08:16:43;;;;;;;0.70;0.70;;;;;;;23.01;47.52;100788.50;4529962;28;20100;-61
2023/07/08 08:18:53;;;;;;;1.20;1.00;;;;;;;23.01;47.24;100784.78;4531001;28;20045;-61
2023/07/08 08:21:03;;;;;;;0.90;0.77;;;;;;;23.02;47.25;100787.31;4529225;28;20407;-61
2023/07/08 08:23:14;;;;;;;0.70;0.70;;;;;;;23.01;47.37;100781.91;4529299;28;20037;-61
2023/07/08 08:25:25;;;;;;;0.65;0.65;;;;;;;23.01;47.14;100788.50;4529726;28;20139;-63
2023/07/08 08:27:35;;;;;;;1.10;0.80;;;;;;;23.02;47.18;100786.47;4529012;28;20080;-61
2023/07/08 08:29:45;;;;;;;0.95;0.85;;;;;;;23.03;47.31;100797.63;4529853;28;20022;-61
2023/07/08 08:31:56;;;;;;;0.90;0.80;;;;;;;22.93;47.11;100772.31;4530845;28;20319;-60
2023/07/08 08:34:06;;;;;;;0.70;0.70;;;;;;;23.00;47.38;100795.50;4530544;28;20045;-61
2023/07/08 08:36:17;;;;;;;0.90;0.90;;;;;;;23.03;47.38;100785.25;4529935;28;20079;-61
2023/07/08 08:38:27;;;;;;;0.73;0.73;;;;;;;23.06;47.06;100802.59;4528385;28;20044;-61
2023/07/08 08:40:40;;;;;;;0.88;0.88;;;;;;;23.06;47.44;100796.00;4529959;28;20586;-61
2023/07/08 08:42:58;;;;;;;0.95;0.88;;;;;;;23.07;47.44;100801.38;4531890;28;20051;-61
2023/07/08 08:45:13;;;;;;;0.80;0.80;;;;;;;23.09;47.22;100810.47;4529318;28;20029;-61
2023/07/08 08:47:40;;;;;;;0.73;0.73;;;;;;;23.10;47.07;100799.81;4527486;28;20102;-61
2023/07/08 08:49:57;;;;;;;0.82;0.80;;;;;;;23.10;47.60;100802.69;4529567;28;20100;-61
2023/07/08 08:52:07;;;;;;;0.77;0.77;;;;;;;23.10;47.25;100799.81;4527640;28;20572;-61
2023/07/08 08:54:18;;;;;;;1.33;0.80;;;;;;;23.10;47.13;100805.56;4530734;28;20060;-61
2023/07/08 08:56:32;;;;;;;0.63;0.63;;;;;;;23.09;47.05;100798.97;4530710;28;20033;-61
2023/07/08 08:58:46;;;;;;;0.75;0.70;;;;;;;23.10;47.25;100797.75;4529385;28;20072;-61
2023/07/08 09:01:08;;;;;;;1.45;0.80;;;;;;;23.11;47.11;100795.72;4527840;28;20045;-61
2023/07/08 09:03:42;;;;;;;0.70;0.70;;;;;;;23.11;47.45;100795.72;4529299;28;20190;-61
2023/07/08 09:05:58;;;;;;;0.82;0.80;;;;;;;23.13;47.25;100796.16;4529358;28;20794;-61
2023/07/08 09:08:45;;;;;;;0.73;0.70;;;;;;;23.13;47.26;100785.50;4529685;28;20388;-61
2023/07/08 09:11:07;;;;;;;0.90;0.90;;;;;;;23.14;47.12;100789.19;4484005;28;20176;-61
2023/07/08 09:13:28;;;;;;;0.80;0.80;;;;;;;23.14;47.34;100795.78;4508563;28;20034;-61
2023/07/08 09:15:38;;;;;;;1.55;0.73;;;;;;;23.13;47.25;100784.66;4527824;28;20132;-61
2023/07/08 09:17:50;;;;;;;1.20;0.60;;;;;;;23.15;47.39;100790.88;4529672;28;20030;-61
2023/07/08 09:20:19;;;;;;;0.80;0.80;;;;;;;23.15;47.15;100785.94;4529384;28;20065;-61
2023/07/08 09:22:45;;;;;;;0.95;0.70;;;;;;;23.16;47.43;100778.13;4530185;28;20616;-61
2023/07/08 09:25:16;;;;;;;0.70;0.70;;;;;;;23.18;47.39;100778.59;4528162;28;20041;-61
2023/07/08 09:27:26;;;;;;;0.75;0.75;;;;;;;23.17;47.46;100782.66;4528684;28;20033;-61
2023/07/08 09:29:37;;;;;;;0.70;0.70;;;;;;;23.18;47.21;100781.47;4528745;28;20141;-61
2023/07/08 09:31:47;;;;;;;1.02;0.63;;;;;;;23.18;47.52;100779.41;4514159;28;20102;-61
2023/07/08 09:34:14;;;;;;;0.70;0.70;;;;;;;23.06;47.14;100759.41;4529072;28;20028;-61
2023/07/08 09:36:25;;;;;;;0.70;0.70;;;;;;;23.19;47.23;100774.47;4529569;28;20827;-61
2023/07/08 09:38:35;;;;;;;0.70;0.70;;;;;;;23.18;47.52;100778.59;4530291;28;20033;-61
2023/07/08 09:40:53;;;;;;;0.70;0.70;;;;;;;23.19;47.24;100774.47;4529085;28;20755;-61
2023/07/08 09:43:35;;;;;;;0.70;0.70;;;;;;;23.21;47.12;100770.00;4528334;28;20041;-61
2023/07/08 09:45:47;;;;;;;0.73;0.73;;;;;;;23.25;47.25;100770.06;4527461;28;20037;-61
2023/07/08 09:48:01;;;;;;;0.82;0.70;;;;;;;23.24;46.97;100769.25;4528989;28;20960;-61
2023/07/08 09:50:22;;;;;;;0.70;0.70;;;;;;;23.24;47.03;100771.31;4528015;28;20032;-61
2023/07/08 09:52:33;;;;;;;0.80;0.70;;;;;;;23.15;47.49;100753.44;4528021;28;20029;-61
2023/07/08 09:54:45;;;;;;;0.70;0.70;;;;;;;23.25;47.29;100773.81;4529141;28;20068;-61
2023/07/08 09:56:56;;;;;;;0.60;0.60;;;;;;;23.27;47.41;100767.69;4527274;28;20026;-61
2023/07/08 09:59:12;;;;;;;0.65;0.65;;;;;;;23.27;47.31;100776.31;4527938;28;20048;-61
2023/07/08 10:01:27;;;;;;;0.90;0.80;;;;;;;23.19;47.42;100757.22;4528222;28;20041;-61
2023/07/08 10:03:38;;;;;;;0.80;0.80;;;;;;;23.29;46.91;100768.16;4527322;28;20103;-62
2023/07/08 10:05:50;;;;;;;0.70;0.70;;;;;;;23.24;47.31;100763.50;4528387;28;20045;-64
2023/07/08 10:08:03;;;;;;;0.75;0.63;;;;;;;23.25;47.00;100767.19;4524706;28;20037;-62
2023/07/08 10:10:22;;;;;;;0.80;0.80;;;;;;;23.29;46.94;100771.03;4527364;28;20588;-63
2023/07/08 10:12:36;;;;;;;0.60;0.60;;;;;;;23.29;47.23;100771.84;4530138;28;20034;-62
2023/07/08 10:14:52;;;;;;;0.70;0.60;;;;;;;23.31;47.37;100778.06;4528073;28;20037;-62